createdAt,value
2023-02-11T00:00:22.192Z,48.40
2023-02-11T00:03:25.451Z,46.28
2023-02-11T00:06:29.577Z,49.33
2023-02-11T00:09:31.981Z,46.40
2023-02-11T00:12:35.888Z,49.83
2023-02-11T00:15:38.746Z,51.15
2023-02-11T00:18:41.035Z,53.00
2023-02-11T00:21:45.173Z,47.75
2023-02-11T00:24:47.307Z,49.80
2023-02-11T00:27:52.053Z,48.03
2023-02-11T00:30:56.260Z,49.92
2023-02-11T00:34:01.801Z,45.97
2023-02-11T00:37:08.039Z,41.63
2023-02-11T00:40:10.557Z,37.17
2023-02-11T00:43:12.819Z,42.70
2023-02-11T00:46:16.151Z,51.03
2023-02-11T00:49:19.391Z,53.97
2023-02-11T00:52:21.461Z,44.35
2023-02-11T00:55:23.810Z,47.15
2023-02-11T00:58:25.865Z,48.50
2023-02-11T01:01:28.239Z,40.05
2023-02-11T01:04:30.478Z,50.03
2023-02-11T01:07:32.427Z,49.92
2023-02-11T01:10:34.479Z,47.90
2023-02-11T01:13:40.361Z,39.23
2023-02-11T01:16:42.353Z,38.60
2023-02-11T01:19:44.519Z,47.95
2023-02-11T01:22:46.542Z,29.33
2023-02-11T01:25:53.040Z,46.85
2023-02-11T01:28:55.509Z,47.30
2023-02-11T01:31:58.008Z,50.53
2023-02-11T01:35:00.122Z,50.17
2023-02-11T01:38:02.148Z,48.33
2023-02-11T01:41:10.451Z,47.88
2023-02-11T01:44:44.843Z,48.33
2023-02-11T01:47:46.801Z,45.00
2023-02-11T01:50:53.141Z,42.03
2023-02-11T01:54:15.009Z,47.28
2023-02-11T01:57:29.900Z,46.92
2023-02-11T02:00:37.274Z,48.00
2023-02-11T02:03:44.482Z,50.90
2023-02-11T02:06:53.713Z,50.92
2023-02-11T02:10:03.680Z,51.97
2023-02-11T02:13:05.732Z,47.42
2023-02-11T02:16:16.843Z,53.63
2023-02-11T02:19:42.467Z,43.92
2023-02-11T02:22:56.741Z,51.70
2023-02-11T02:26:14.823Z,51.70
2023-02-11T02:29:54.861Z,44.75
2023-02-11T02:33:41.204Z,48.43
2023-02-11T02:37:01.366Z,49.17
2023-02-11T02:40:11.883Z,42.85
2023-02-11T02:43:15.494Z,38.70
2023-02-11T02:46:30.482Z,45.92
2023-02-11T02:49:32.364Z,44.90
2023-02-11T02:53:12.414Z,47.88
2023-02-11T02:56:18.321Z,39.10
2023-02-11T02:59:53.661Z,44.25
2023-02-11T03:03:44.488Z,47.30
2023-02-11T03:06:55.307Z,47.43
2023-02-11T03:10:22.713Z,41.15
2023-02-11T03:13:29.982Z,51.75
2023-02-11T03:16:39.255Z,39.85
2023-02-11T03:19:44.231Z,45.67
2023-02-11T03:23:20.992Z,43.77
2023-02-11T03:26:35.203Z,40.45
2023-02-11T03:29:51.789Z,41.80
2023-02-11T03:33:05.730Z,49.17
2023-02-11T03:36:20.355Z,47.10
2023-02-11T03:39:30.893Z,50.30
2023-02-11T03:42:41.739Z,44.90
2023-02-11T03:45:49.538Z,43.83
2023-02-11T03:48:59.023Z,44.03
2023-02-11T03:52:03.518Z,42.00
2023-02-11T03:55:13.384Z,50.90
2023-02-11T03:58:16.968Z,49.83
2023-02-11T04:01:20.706Z,38.33
2023-02-11T04:04:22.816Z,44.53
2023-02-11T04:07:25.706Z,51.00
2023-02-11T04:10:27.717Z,47.47
2023-02-11T04:13:30.614Z,50.05
2023-02-11T04:16:32.701Z,51.15
2023-02-11T04:19:35.430Z,51.28
2023-02-11T04:22:39.129Z,55.38
2023-02-11T04:25:41.075Z,51.37
2023-02-11T04:28:43.033Z,59.05
2023-02-11T04:31:45.819Z,62.17
2023-02-11T04:34:48.530Z,69.68
2023-02-11T04:37:50.755Z,63.10
2023-02-11T04:40:55.945Z,71.17
2023-02-11T04:43:58.143Z,61.47
2023-02-11T04:47:00.135Z,61.58
2023-02-11T04:50:02.282Z,53.35
2023-02-11T04:53:04.371Z,60.13
2023-02-11T04:56:08.350Z,63.40
2023-02-11T04:59:11.621Z,70.38
2023-02-11T05:02:13.935Z,76.72
2023-02-11T05:05:16.101Z,70.75
2023-02-11T05:08:18.133Z,69.35
2023-02-11T05:11:23.256Z,65.60
2023-02-11T05:14:25.459Z,73.15
2023-02-11T05:17:27.535Z,76.93
2023-02-11T05:20:30.618Z,68.53
2023-02-11T05:23:35.634Z,57.83
2023-02-11T05:26:40.309Z,82.30
2023-02-11T05:29:42.776Z,60.92
2023-02-11T05:32:44.794Z,54.78
2023-02-11T05:35:46.823Z,56.45
2023-02-11T05:38:48.895Z,62.80
2023-02-11T05:41:52.409Z,61.67
2023-02-11T05:44:54.243Z,59.60
2023-02-11T05:47:57.844Z,68.45
2023-02-11T05:51:00.081Z,56.25
2023-02-11T05:54:02.098Z,58.63
2023-02-11T05:57:04.367Z,47.67
2023-02-11T06:00:08.707Z,57.85
2023-02-11T06:03:10.739Z,53.63
2023-02-11T06:06:12.879Z,53.40
2023-02-11T06:09:15.477Z,59.95
2023-02-11T06:12:17.598Z,63.10
2023-02-11T06:15:19.573Z,63.92
2023-02-11T06:18:21.527Z,39.60
2023-02-11T06:21:33.532Z,66.50
2023-02-11T06:25:00.469Z,61.67
2023-02-11T06:28:06.633Z,67.87
2023-02-11T06:31:09.803Z,63.72
2023-02-11T06:34:14.866Z,62.30
2023-02-11T06:37:16.828Z,73.15
2023-02-11T06:40:18.824Z,65.13
2023-02-11T06:43:21.127Z,75.77
2023-02-11T06:46:23.485Z,70.90
2023-02-11T06:49:25.840Z,62.10
2023-02-11T06:52:27.862Z,65.97
2023-02-11T06:55:29.912Z,61.20
2023-02-11T06:58:32.714Z,65.93
2023-02-11T07:01:35.155Z,73.60
2023-02-11T07:04:37.334Z,72.97
2023-02-11T07:07:39.375Z,67.05
2023-02-11T07:10:41.818Z,70.40
2023-02-11T07:13:43.944Z,72.73
2023-02-11T07:16:45.826Z,69.60
2023-02-11T07:19:47.792Z,73.63
2023-02-11T07:22:50.189Z,74.53
2023-02-11T07:25:52.885Z,63.50
2023-02-11T07:28:55.285Z,58.33
2023-02-11T07:31:57.893Z,66.28
2023-02-11T07:35:00.229Z,62.63
2023-02-11T07:38:02.944Z,66.15
2023-02-11T07:41:11.396Z,64.90
2023-02-11T07:44:15.806Z,69.10
2023-02-11T07:47:18.549Z,64.85
2023-02-11T07:50:20.930Z,61.70
2023-02-11T07:53:22.955Z,59.28
2023-02-11T07:56:25.357Z,58.13
2023-02-11T07:59:27.608Z,50.83
2023-02-11T08:02:29.807Z,58.13
2023-02-11T08:05:31.953Z,48.70
2023-02-11T08:08:35.491Z,59.88
2023-02-11T08:11:37.696Z,51.92
2023-02-11T08:14:40.016Z,50.83
2023-02-11T08:17:42.052Z,45.70
2023-02-11T08:20:45.015Z,43.22
2023-02-11T08:23:47.467Z,37.85
2023-02-11T08:26:49.838Z,38.60
2023-02-11T08:29:52.169Z,35.77
2023-02-11T08:32:54.173Z,39.55
2023-02-11T08:35:56.096Z,39.55
2023-02-11T08:39:16.108Z,33.85
2023-02-11T08:42:20.004Z,39.50
2023-02-11T08:45:22.160Z,45.27
2023-02-11T08:48:25.727Z,43.25
2023-02-11T08:51:31.551Z,37.15
2023-02-11T08:54:33.677Z,37.50
2023-02-11T08:57:35.928Z,36.33
2023-02-11T09:00:38.451Z,39.97
2023-02-11T09:03:40.650Z,36.45
2023-02-11T09:06:42.604Z,42.83
2023-02-11T09:09:44.656Z,36.42
2023-02-11T09:12:47.216Z,44.40
2023-02-11T09:15:49.326Z,50.77
2023-02-11T09:18:51.453Z,51.03
2023-02-11T09:21:53.262Z,45.78
2023-02-11T09:24:55.649Z,37.72
2023-02-11T09:27:58.226Z,48.47
2023-02-11T09:31:09.073Z,41.73
2023-02-11T09:34:12.016Z,42.13
2023-02-11T09:37:14.574Z,45.67
2023-02-11T09:40:17.354Z,39.30
2023-02-11T09:43:29.444Z,20.90
2023-02-11T09:46:37.722Z,41.03
2023-02-11T09:49:48.572Z,40.70
2023-02-11T09:53:11.088Z,41.75
2023-02-11T09:56:15.526Z,44.13
2023-02-11T09:59:18.674Z,46.33
2023-02-11T10:02:29.018Z,43.90
2023-02-11T10:05:52.437Z,50.30
2023-02-11T10:09:18.855Z,38.70
2023-02-11T10:13:04.052Z,42.50
2023-02-11T10:16:21.292Z,43.22
2023-02-11T10:19:41.317Z,53.57
2023-02-11T10:22:54.052Z,42.97
2023-02-11T10:25:57.833Z,46.92
2023-02-11T10:29:05.622Z,45.28
2023-02-11T10:32:25.796Z,39.83
2023-02-11T10:35:27.738Z,38.57
2023-02-11T10:38:34.210Z,39.60
2023-02-11T10:41:41.969Z,40.63
2023-02-11T10:44:58.040Z,43.03
2023-02-11T10:48:01.848Z,38.20
2023-02-11T10:51:34.244Z,41.67
2023-02-11T10:54:36.530Z,41.33
2023-02-11T10:57:50.465Z,42.88
2023-02-11T11:00:55.776Z,37.58
2023-02-11T11:04:00.290Z,38.20
2023-02-11T11:07:30.835Z,40.37
2023-02-11T11:10:45.188Z,38.78
2023-02-11T11:13:58.212Z,36.00
2023-02-11T11:17:00.179Z,37.95
2023-02-11T11:20:20.675Z,37.70
2023-02-11T11:23:24.847Z,41.13
2023-02-11T11:26:39.653Z,47.95
2023-02-11T11:29:55.449Z,50.50
2023-02-11T11:32:58.740Z,37.60
2023-02-11T11:36:07.967Z,43.20
2023-02-11T11:39:16.141Z,33.43
2023-02-11T11:42:25.780Z,36.25
2023-02-11T11:45:28.123Z,37.83
2023-02-11T11:48:39.545Z,38.78
2023-02-11T11:51:47.903Z,35.45
2023-02-11T11:54:59.044Z,31.80
2023-02-11T11:58:01.944Z,35.45
2023-02-11T12:01:19.255Z,28.73
2023-02-11T12:04:48.174Z,26.10
2023-02-11T12:08:08.037Z,28.33
2023-02-11T12:11:12.710Z,26.97
2023-02-11T12:14:33.057Z,25.95
2023-02-11T12:17:47.207Z,24.75
2023-02-11T12:21:14.062Z,22.77
2023-02-11T12:24:33.214Z,27.52
2023-02-11T12:27:50.103Z,31.40
2023-02-11T12:31:04.543Z,25.33
2023-02-11T12:34:42.106Z,30.70
2023-02-11T12:38:05.774Z,29.17
2023-02-11T12:41:47.011Z,25.95
2023-02-11T12:45:07.774Z,25.23
2023-02-11T12:48:13.098Z,28.98
2023-02-11T12:51:34.216Z,26.95
2023-02-11T12:54:54.254Z,22.77
2023-02-11T12:57:59.487Z,25.10
2023-02-11T13:01:08.391Z,24.73
2023-02-11T13:04:24.102Z,21.98
2023-02-11T13:07:33.357Z,26.92
2023-02-11T13:10:38.342Z,21.73
2023-02-11T13:14:04.558Z,25.48
2023-02-11T13:17:17.544Z,24.00
2023-02-11T13:20:33.066Z,25.38
2023-02-11T13:24:09.850Z,21.50
2023-02-11T13:27:29.969Z,23.83
2023-02-11T13:30:35.923Z,21.05
2023-02-11T13:33:44.349Z,22.23
2023-02-11T13:36:55.192Z,21.27
2023-02-11T13:40:04.054Z,21.10
2023-02-11T13:43:19.204Z,20.30
2023-02-11T13:46:21.858Z,22.52
2023-02-11T13:49:40.797Z,20.73
2023-02-11T13:52:43.146Z,21.42
2023-02-11T13:55:47.692Z,23.85
2023-02-11T13:58:59.046Z,21.90
2023-02-11T14:02:47.438Z,16.92
2023-02-11T14:06:28.781Z,23.50
2023-02-11T14:09:37.416Z,21.88
2023-02-11T14:12:39.577Z,23.52
2023-02-11T14:15:41.539Z,17.13
2023-02-11T14:18:50.045Z,18.85
2023-02-11T14:21:52.184Z,25.03
2023-02-11T14:25:01.734Z,20.17
2023-02-11T14:28:16.841Z,23.70
2023-02-11T14:31:25.138Z,20.00
2023-02-11T14:35:05.179Z,18.52
2023-02-11T14:38:37.763Z,20.30
2023-02-11T14:41:42.940Z,22.30
2023-02-11T14:44:46.059Z,21.05
2023-02-11T14:48:03.501Z,20.00
2023-02-11T14:51:13.857Z,19.98
2023-02-11T14:54:22.798Z,25.37
2023-02-11T14:57:25.419Z,23.15
2023-02-11T15:00:27.765Z,22.30
2023-02-11T15:03:48.148Z,22.35
2023-02-11T15:06:50.777Z,24.08
2023-02-11T15:09:57.331Z,21.87
2023-02-11T15:13:02.396Z,23.85
2023-02-11T15:16:11.271Z,25.90
2023-02-11T15:19:41.203Z,23.45
2023-02-11T15:22:46.193Z,23.30
2023-02-11T15:25:56.514Z,25.90
2023-02-11T15:29:01.559Z,23.17
2023-02-11T15:32:07.189Z,23.10
2023-02-11T15:35:12.006Z,24.88
2023-02-11T15:38:14.468Z,27.10
2023-02-11T15:41:38.210Z,21.73
2023-02-11T15:44:40.243Z,24.58
2023-02-11T15:47:51.603Z,23.80
2023-02-11T15:50:58.752Z,24.20
2023-02-11T15:54:17.076Z,25.42
2023-02-11T15:57:21.811Z,23.83
2023-02-11T16:00:28.894Z,26.33
2023-02-11T16:03:33.728Z,24.88
2023-02-11T16:06:43.302Z,24.95
2023-02-11T16:09:45.595Z,26.88
2023-02-11T16:12:53.185Z,28.73
2023-02-11T16:16:01.734Z,24.08
2023-02-11T16:19:06.205Z,26.85
2023-02-11T16:22:15.937Z,27.00
2023-02-11T16:25:21.249Z,29.67
2023-02-11T16:28:23.817Z,25.10
2023-02-11T16:31:36.774Z,25.25
2023-02-11T16:34:39.017Z,28.33
2023-02-11T16:37:41.188Z,24.70
2023-02-11T16:40:45.004Z,24.73
2023-02-11T16:43:47.699Z,26.10
2023-02-11T16:46:49.960Z,27.08
2023-02-11T16:49:52.866Z,22.95
2023-02-11T16:52:57.500Z,26.95
2023-02-11T16:55:59.674Z,25.27
2023-02-11T16:59:02.081Z,23.33
2023-02-11T17:02:04.043Z,24.38
2023-02-11T17:05:15.515Z,24.55
2023-02-11T17:08:17.731Z,26.48
2023-02-11T17:11:19.994Z,27.85
2023-02-11T17:14:21.902Z,27.83
2023-02-11T17:17:24.123Z,26.65
2023-02-11T17:20:26.601Z,24.48
2023-02-11T17:23:28.825Z,25.85
2023-02-11T17:26:30.905Z,27.10
2023-02-11T17:29:36.830Z,27.17
2023-02-11T17:32:38.951Z,28.13
2023-02-11T17:35:41.222Z,21.63
2023-02-11T17:38:44.729Z,26.20
2023-02-11T17:41:47.695Z,23.92
2023-02-11T17:44:49.644Z,26.60
2023-02-11T17:47:52.393Z,26.88
2023-02-11T17:50:54.689Z,24.35
2023-02-11T17:53:58.967Z,25.42
2023-02-11T17:57:01.112Z,27.20
2023-02-11T18:00:06.433Z,26.03
2023-02-11T18:03:09.005Z,26.27
2023-02-11T18:06:12.415Z,26.85
2023-02-11T18:09:16.023Z,27.10
2023-02-11T18:12:25.606Z,30.27
2023-02-11T18:15:29.320Z,26.10
2023-02-11T18:18:32.144Z,27.33
2023-02-11T18:21:34.675Z,25.23
2023-02-11T18:24:36.875Z,27.63
2023-02-11T18:27:41.819Z,24.67
2023-02-11T18:30:44.212Z,31.47
2023-02-11T18:33:47.929Z,28.92
2023-02-11T18:36:50.619Z,32.22
2023-02-11T18:39:53.470Z,33.58
2023-02-11T18:42:56.137Z,33.70
2023-02-11T18:45:58.945Z,29.37
2023-02-11T18:49:01.368Z,29.80
2023-02-11T18:52:04.284Z,27.65
2023-02-11T18:55:09.275Z,25.25
2023-02-11T18:58:12.248Z,28.77
2023-02-11T19:01:22.876Z,31.87
2023-02-11T19:04:25.453Z,29.55
2023-02-11T19:07:27.690Z,25.42
2023-02-11T19:10:30.084Z,26.20
2023-02-11T19:13:32.639Z,20.42
2023-02-11T19:16:34.927Z,25.57
2023-02-11T19:19:37.351Z,28.10
2023-02-11T19:22:39.521Z,28.63
2023-02-11T19:25:47.994Z,33.72
2023-02-11T19:28:50.148Z,30.83
2023-02-11T19:31:52.699Z,29.00
2023-02-11T19:34:55.061Z,27.08
2023-02-11T19:37:57.556Z,25.20
2023-02-11T19:41:03.895Z,31.38
2023-02-11T19:44:08.317Z,24.70
2023-02-11T19:47:10.689Z,29.73
2023-02-11T19:50:13.522Z,29.42
2023-02-11T19:53:15.798Z,31.10
2023-02-11T19:56:20.833Z,27.63
2023-02-11T19:59:23.826Z,25.20
2023-02-11T20:02:30.031Z,25.57
2023-02-11T20:05:32.292Z,20.67
2023-02-11T20:08:34.471Z,26.88
2023-02-11T20:11:39.744Z,21.38
2023-02-11T20:14:42.215Z,20.50
2023-02-11T20:17:44.458Z,24.40
2023-02-11T20:20:46.598Z,24.60
2023-02-11T20:24:08.233Z,22.30
2023-02-11T20:27:12.513Z,23.17
2023-02-11T20:30:17.330Z,23.35
2023-02-11T20:33:21.631Z,22.50
2023-02-11T20:36:26.637Z,23.77
2023-02-11T20:39:28.588Z,21.45
2023-02-11T20:42:30.447Z,25.17
2023-02-11T20:45:35.803Z,23.30
2023-02-11T20:48:38.432Z,24.27
2023-02-11T20:51:40.725Z,23.20
2023-02-11T20:54:43.489Z,18.77
2023-02-11T20:57:46.661Z,19.45
2023-02-11T21:00:48.983Z,24.15
2023-02-11T21:03:54.543Z,16.70
2023-02-11T21:06:59.594Z,22.95
2023-02-11T21:10:01.931Z,23.55
2023-02-11T21:13:04.182Z,21.75
2023-02-11T21:16:07.453Z,19.40
2023-02-11T21:19:09.683Z,25.17
2023-02-11T21:22:12.667Z,23.38
2023-02-11T21:25:18.200Z,23.50
2023-02-11T21:28:30.991Z,20.92
2023-02-11T21:31:34.476Z,27.30
2023-02-11T21:34:36.631Z,24.23
2023-02-11T21:37:38.725Z,23.67
2023-02-11T21:40:42.308Z,24.50
2023-02-11T21:43:45.670Z,27.30
2023-02-11T21:46:50.020Z,22.88
2023-02-11T21:49:55.500Z,22.17
2023-02-11T21:52:57.882Z,23.52
2023-02-11T21:56:04.552Z,24.90
2023-02-11T21:59:08.044Z,22.15
2023-02-11T22:02:11.504Z,20.67
2023-02-11T22:05:13.638Z,22.57
2023-02-11T22:08:16.683Z,20.25
2023-02-11T22:11:20.781Z,16.45
2023-02-11T22:14:22.966Z,23.65
2023-02-11T22:17:25.067Z,23.42
2023-02-11T22:20:27.474Z,20.73
2023-02-11T22:23:30.364Z,23.85
2023-02-11T22:26:36.500Z,26.38
2023-02-11T22:29:38.857Z,21.38
2023-02-11T22:32:44.600Z,23.27
2023-02-11T22:35:46.745Z,21.20
2023-02-11T22:38:53.007Z,22.40
2023-02-11T22:41:56.595Z,24.10
2023-02-11T22:44:58.443Z,22.20
2023-02-11T22:48:04.074Z,16.98
2023-02-11T22:51:15.212Z,16.80
2023-02-11T22:54:19.011Z,21.70
2023-02-11T22:57:20.909Z,23.67
2023-02-11T23:00:26.489Z,22.70
2023-02-11T23:03:28.963Z,18.80
2023-02-11T23:06:30.864Z,23.93
2023-02-11T23:09:32.906Z,22.77
2023-02-11T23:12:35.164Z,24.48
2023-02-11T23:15:42.073Z,16.63
2023-02-11T23:18:45.596Z,22.92
2023-02-11T23:21:51.101Z,18.83
2023-02-11T23:24:53.176Z,23.80
2023-02-11T23:27:55.233Z,23.25
2023-02-11T23:30:57.423Z,24.80
2023-02-11T23:34:01.146Z,19.08
2023-02-11T23:37:03.418Z,21.87
2023-02-11T23:40:05.872Z,22.02
2023-02-11T23:43:08.129Z,22.38
2023-02-11T23:46:10.950Z,22.38
2023-02-11T23:49:13.255Z,25.85
2023-02-11T23:52:15.231Z,21.20
2023-02-11T23:55:17.425Z,22.83
2023-02-11T23:58:19.297Z,22.20
